sensor_id;sensor_type;location;lat;lon;timestamp;P1;durP1;ratioP1;P2;durP2;ratioP2
46561;SDS011;32289;42.688;23.330;2023-11-19T00:03:39;2.97;;;1.60;;
46561;SDS011;32289;42.688;23.330;2023-11-19T00:07:20;3.08;;;1.83;;
46561;SDS011;32289;42.688;23.330;2023-11-19T00:11:01;2.72;;;1.55;;
46561;SDS011;32289;42.688;23.330;2023-11-19T00:14:41;4.78;;;1.83;;
46561;SDS011;32289;42.688;23.330;2023-11-19T00:18:22;3.03;;;1.27;;
46561;SDS011;32289;42.688;23.330;2023-11-19T00:22:03;3.20;;;1.60;;
46561;SDS011;32289;42.688;23.330;2023-11-19T00:25:43;2.45;;;1.60;;
46561;SDS011;32289;42.688;23.330;2023-11-19T00:29:24;3.67;;;1.70;;
46561;SDS011;32289;42.688;23.330;2023-11-19T00:33:05;4.82;;;2.00;;
46561;SDS011;32289;42.688;23.330;2023-11-19T00:36:45;3.08;;;1.77;;
46561;SDS011;32289;42.688;23.330;2023-11-19T00:40:26;4.40;;;2.38;;
46561;SDS011;32289;42.688;23.330;2023-11-19T00:44:07;4.03;;;2.10;;
46561;SDS011;32289;42.688;23.330;2023-11-19T00:47:47;3.78;;;2.25;;
46561;SDS011;32289;42.688;23.330;2023-11-19T00:51:28;1.92;;;1.30;;
46561;SDS011;32289;42.688;23.330;2023-11-19T00:55:11;5.03;;;2.10;;
46561;SDS011;32289;42.688;23.330;2023-11-19T00:58:52;3.28;;;1.90;;
46561;SDS011;32289;42.688;23.330;2023-11-19T01:02:32;2.75;;;1.45;;
46561;SDS011;32289;42.688;23.330;2023-11-19T01:06:14;3.17;;;1.58;;
46561;SDS011;32289;42.688;23.330;2023-11-19T01:09:55;2.92;;;1.58;;
46561;SDS011;32289;42.688;23.330;2023-11-19T01:13:36;3.17;;;1.70;;
46561;SDS011;32289;42.688;23.330;2023-11-19T01:17:16;3.63;;;2.05;;
46561;SDS011;32289;42.688;23.330;2023-11-19T01:20:57;2.88;;;1.67;;
46561;SDS011;32289;42.688;23.330;2023-11-19T01:24:38;2.70;;;1.58;;
46561;SDS011;32289;42.688;23.330;2023-11-19T01:28:18;7.57;;;1.80;;
46561;SDS011;32289;42.688;23.330;2023-11-19T01:31:59;2.70;;;1.45;;
46561;SDS011;32289;42.688;23.330;2023-11-19T01:35:40;2.85;;;1.55;;
46561;SDS011;32289;42.688;23.330;2023-11-19T01:39:21;4.70;;;1.85;;
46561;SDS011;32289;42.688;23.330;2023-11-19T01:43:02;2.45;;;1.48;;
46561;SDS011;32289;42.688;23.330;2023-11-19T01:46:44;3.15;;;1.65;;
46561;SDS011;32289;42.688;23.330;2023-11-19T01:50:27;3.53;;;1.92;;
46561;SDS011;32289;42.688;23.330;2023-11-19T01:54:08;3.03;;;1.40;;
46561;SDS011;32289;42.688;23.330;2023-11-19T01:57:49;2.97;;;1.33;;
46561;SDS011;32289;42.688;23.330;2023-11-19T02:01:31;2.45;;;1.52;;
46561;SDS011;32289;42.688;23.330;2023-11-19T02:05:14;3.80;;;1.70;;
46561;SDS011;32289;42.688;23.330;2023-11-19T02:08:56;2.78;;;1.50;;
46561;SDS011;32289;42.688;23.330;2023-11-19T02:12:37;3.55;;;1.60;;
46561;SDS011;32289;42.688;23.330;2023-11-19T02:16:17;3.00;;;1.60;;
46561;SDS011;32289;42.688;23.330;2023-11-19T02:19:58;6.43;;;1.63;;
46561;SDS011;32289;42.688;23.330;2023-11-19T02:23:39;2.58;;;1.52;;
46561;SDS011;32289;42.688;23.330;2023-11-19T02:27:26;2.33;;;1.45;;
46561;SDS011;32289;42.688;23.330;2023-11-19T02:31:18;2.10;;;1.27;;
46561;SDS011;32289;42.688;23.330;2023-11-19T02:34:59;4.03;;;1.73;;
46561;SDS011;32289;42.688;23.330;2023-11-19T02:38:39;3.60;;;1.80;;
46561;SDS011;32289;42.688;23.330;2023-11-19T02:42:20;2.35;;;1.27;;
46561;SDS011;32289;42.688;23.330;2023-11-19T02:46:02;3.60;;;1.75;;
46561;SDS011;32289;42.688;23.330;2023-11-19T02:49:46;3.25;;;1.42;;
46561;SDS011;32289;42.688;23.330;2023-11-19T02:53:27;3.78;;;1.92;;
46561;SDS011;32289;42.688;23.330;2023-11-19T02:57:09;3.30;;;1.95;;
46561;SDS011;32289;42.688;23.330;2023-11-19T03:00:50;3.25;;;1.80;;
46561;SDS011;32289;42.688;23.330;2023-11-19T03:04:37;3.22;;;1.75;;
46561;SDS011;32289;42.688;23.330;2023-11-19T03:08:19;2.42;;;1.63;;
46561;SDS011;32289;42.688;23.330;2023-11-19T03:12:00;2.88;;;1.42;;
46561;SDS011;32289;42.688;23.330;2023-11-19T03:15:41;3.40;;;1.67;;
46561;SDS011;32289;42.688;23.330;2023-11-19T03:19:22;3.20;;;1.45;;
46561;SDS011;32289;42.688;23.330;2023-11-19T03:23:03;3.17;;;1.67;;
46561;SDS011;32289;42.688;23.330;2023-11-19T03:26:47;2.25;;;1.35;;
46561;SDS011;32289;42.688;23.330;2023-11-19T03:30:30;2.25;;;1.27;;
46561;SDS011;32289;42.688;23.330;2023-11-19T03:34:11;4.30;;;2.30;;
46561;SDS011;32289;42.688;23.330;2023-11-19T03:37:52;2.88;;;1.77;;
46561;SDS011;32289;42.688;23.330;2023-11-19T03:41:32;4.43;;;1.88;;
46561;SDS011;32289;42.688;23.330;2023-11-19T03:45:13;4.68;;;1.60;;
46561;SDS011;32289;42.688;23.330;2023-11-19T03:48:55;2.45;;;1.23;;
46561;SDS011;32289;42.688;23.330;2023-11-19T03:52:36;3.53;;;1.90;;
46561;SDS011;32289;42.688;23.330;2023-11-19T03:56:17;6.32;;;1.90;;
46561;SDS011;32289;42.688;23.330;2023-11-19T03:59:57;3.22;;;1.60;;
46561;SDS011;32289;42.688;23.330;2023-11-19T04:03:38;2.30;;;1.40;;
46561;SDS011;32289;42.688;23.330;2023-11-19T04:07:19;3.25;;;1.48;;
46561;SDS011;32289;42.688;23.330;2023-11-19T04:11:00;2.30;;;1.25;;
46561;SDS011;32289;42.688;23.330;2023-11-19T04:14:42;2.63;;;1.42;;
46561;SDS011;32289;42.688;23.330;2023-11-19T04:18:22;2.50;;;1.65;;
46561;SDS011;32289;42.688;23.330;2023-11-19T04:22:03;3.70;;;1.58;;
46561;SDS011;32289;42.688;23.330;2023-11-19T04:25:44;4.68;;;2.10;;
46561;SDS011;32289;42.688;23.330;2023-11-19T04:29:25;3.63;;;1.92;;
46561;SDS011;32289;42.688;23.330;2023-11-19T04:33:05;3.97;;;2.30;;
46561;SDS011;32289;42.688;23.330;2023-11-19T04:36:46;4.22;;;1.70;;
46561;SDS011;32289;42.688;23.330;2023-11-19T04:40:27;4.40;;;1.70;;
46561;SDS011;32289;42.688;23.330;2023-11-19T04:44:07;3.00;;;2.08;;
46561;SDS011;32289;42.688;23.330;2023-11-19T04:47:49;4.72;;;2.08;;
46561;SDS011;32289;42.688;23.330;2023-11-19T04:51:29;3.97;;;1.80;;
46561;SDS011;32289;42.688;23.330;2023-11-19T04:55:10;4.72;;;2.30;;
46561;SDS011;32289;42.688;23.330;2023-11-19T04:58:54;3.85;;;1.48;;
46561;SDS011;32289;42.688;23.330;2023-11-19T05:02:35;3.13;;;1.95;;
46561;SDS011;32289;42.688;23.330;2023-11-19T05:06:15;3.25;;;1.90;;
46561;SDS011;32289;42.688;23.330;2023-11-19T05:09:56;3.30;;;1.67;;
46561;SDS011;32289;42.688;23.330;2023-11-19T05:13:37;3.05;;;1.80;;
46561;SDS011;32289;42.688;23.330;2023-11-19T05:17:18;3.13;;;1.67;;
46561;SDS011;32289;42.688;23.330;2023-11-19T05:20:59;3.13;;;1.52;;
46561;SDS011;32289;42.688;23.330;2023-11-19T05:24:39;3.17;;;1.83;;
46561;SDS011;32289;42.688;23.330;2023-11-19T05:28:21;4.22;;;1.83;;
46561;SDS011;32289;42.688;23.330;2023-11-19T05:32:01;6.82;;;1.85;;
46561;SDS011;32289;42.688;23.330;2023-11-19T05:35:42;3.88;;;1.95;;
46561;SDS011;32289;42.688;23.330;2023-11-19T05:39:23;4.35;;;2.05;;
46561;SDS011;32289;42.688;23.330;2023-11-19T05:43:04;4.70;;;1.95;;
46561;SDS011;32289;42.688;23.330;2023-11-19T05:46:45;3.40;;;1.88;;
46561;SDS011;32289;42.688;23.330;2023-11-19T05:50:26;3.47;;;1.58;;
46561;SDS011;32289;42.688;23.330;2023-11-19T05:54:07;3.60;;;1.90;;
46561;SDS011;32289;42.688;23.330;2023-11-19T05:57:49;4.05;;;1.77;;
46561;SDS011;32289;42.688;23.330;2023-11-19T06:01:32;4.47;;;2.10;;
46561;SDS011;32289;42.688;23.330;2023-11-19T06:05:14;4.00;;;1.40;;
46561;SDS011;32289;42.688;23.330;2023-11-19T06:08:54;4.47;;;2.20;;
46561;SDS011;32289;42.688;23.330;2023-11-19T06:12:35;3.45;;;2.03;;
46561;SDS011;32289;42.688;23.330;2023-11-19T06:16:18;3.88;;;2.38;;
46561;SDS011;32289;42.688;23.330;2023-11-19T06:19:59;3.55;;;1.90;;
46561;SDS011;32289;42.688;23.330;2023-11-19T06:23:39;3.30;;;1.42;;
46561;SDS011;32289;42.688;23.330;2023-11-19T06:27:21;4.10;;;1.70;;
46561;SDS011;32289;42.688;23.330;2023-11-19T06:31:03;3.90;;;1.90;;
46561;SDS011;32289;42.688;23.330;2023-11-19T06:34:43;7.30;;;2.90;;
46561;SDS011;32289;42.688;23.330;2023-11-19T06:38:24;3.65;;;1.65;;
46561;SDS011;32289;42.688;23.330;2023-11-19T06:42:05;4.25;;;2.08;;
46561;SDS011;32289;42.688;23.330;2023-11-19T06:45:45;3.72;;;2.38;;
46561;SDS011;32289;42.688;23.330;2023-11-19T06:49:26;3.78;;;2.13;;
46561;SDS011;32289;42.688;23.330;2023-11-19T06:53:07;3.97;;;2.08;;
46561;SDS011;32289;42.688;23.330;2023-11-19T06:56:50;4.82;;;2.08;;
46561;SDS011;32289;42.688;23.330;2023-11-19T07:00:31;4.35;;;2.00;;
46561;SDS011;32289;42.688;23.330;2023-11-19T07:04:13;3.65;;;1.70;;
46561;SDS011;32289;42.688;23.330;2023-11-19T07:07:54;3.50;;;1.90;;
46561;SDS011;32289;42.688;23.330;2023-11-19T07:11:36;3.75;;;2.15;;
46561;SDS011;32289;42.688;23.330;2023-11-19T07:15:20;4.47;;;2.22;;
46561;SDS011;32289;42.688;23.330;2023-11-19T07:19:01;4.47;;;2.13;;
46561;SDS011;32289;42.688;23.330;2023-11-19T07:22:45;4.22;;;1.85;;
46561;SDS011;32289;42.688;23.330;2023-11-19T07:26:26;4.90;;;2.90;;
46561;SDS011;32289;42.688;23.330;2023-11-19T07:30:07;4.47;;;2.53;;
46561;SDS011;32289;42.688;23.330;2023-11-19T07:33:48;8.73;;;2.35;;
46561;SDS011;32289;42.688;23.330;2023-11-19T07:37:29;5.13;;;2.65;;
46561;SDS011;32289;42.688;23.330;2023-11-19T07:41:09;16.85;;;8.95;;
46561;SDS011;32289;42.688;23.330;2023-11-19T07:44:52;4.68;;;2.80;;
46561;SDS011;32289;42.688;23.330;2023-11-19T07:48:35;9.32;;;4.57;;
46561;SDS011;32289;42.688;23.330;2023-11-19T07:52:16;9.90;;;4.18;;
46561;SDS011;32289;42.688;23.330;2023-11-19T07:55:57;7.53;;;3.60;;
46561;SDS011;32289;42.688;23.330;2023-11-19T07:59:39;4.93;;;2.50;;
46561;SDS011;32289;42.688;23.330;2023-11-19T08:03:20;4.00;;;2.45;;
46561;SDS011;32289;42.688;23.330;2023-11-19T08:07:02;4.95;;;2.67;;
46561;SDS011;32289;42.688;23.330;2023-11-19T08:10:43;4.18;;;2.75;;
46561;SDS011;32289;42.688;23.330;2023-11-19T08:14:24;3.78;;;2.00;;
46561;SDS011;32289;42.688;23.330;2023-11-19T08:18:05;3.53;;;2.20;;
46561;SDS011;32289;42.688;23.330;2023-11-19T08:21:47;4.38;;;2.92;;
46561;SDS011;32289;42.688;23.330;2023-11-19T08:25:28;4.20;;;2.40;;
46561;SDS011;32289;42.688;23.330;2023-11-19T08:29:08;12.57;;;3.92;;
46561;SDS011;32289;42.688;23.330;2023-11-19T08:32:49;7.57;;;3.25;;
46561;SDS011;32289;42.688;23.330;2023-11-19T08:36:30;5.45;;;3.30;;
46561;SDS011;32289;42.688;23.330;2023-11-19T08:40:11;5.05;;;2.80;;
46561;SDS011;32289;42.688;23.330;2023-11-19T08:43:55;6.22;;;2.55;;
46561;SDS011;32289;42.688;23.330;2023-11-19T08:47:37;8.52;;;3.03;;
46561;SDS011;32289;42.688;23.330;2023-11-19T08:51:18;5.30;;;2.45;;
46561;SDS011;32289;42.688;23.330;2023-11-19T08:54:59;5.70;;;2.63;;
46561;SDS011;32289;42.688;23.330;2023-11-19T08:58:39;7.28;;;2.55;;
46561;SDS011;32289;42.688;23.330;2023-11-19T09:02:20;4.22;;;2.08;;
46561;SDS011;32289;42.688;23.330;2023-11-19T09:06:01;4.47;;;2.40;;
46561;SDS011;32289;42.688;23.330;2023-11-19T09:09:41;8.23;;;3.65;;
46561;SDS011;32289;42.688;23.330;2023-11-19T09:13:28;6.82;;;3.03;;
46561;SDS011;32289;42.688;23.330;2023-11-19T09:17:08;5.07;;;2.85;;
46561;SDS011;32289;42.688;23.330;2023-11-19T09:20:50;4.05;;;2.03;;
46561;SDS011;32289;42.688;23.330;2023-11-19T09:24:31;11.18;;;3.88;;
46561;SDS011;32289;42.688;23.330;2023-11-19T09:28:14;4.05;;;2.38;;
46561;SDS011;32289;42.688;23.330;2023-11-19T09:31:55;5.55;;;2.70;;
46561;SDS011;32289;42.688;23.330;2023-11-19T09:35:36;6.22;;;2.90;;
46561;SDS011;32289;42.688;23.330;2023-11-19T09:39:16;3.85;;;2.35;;
46561;SDS011;32289;42.688;23.330;2023-11-19T09:42:58;5.10;;;2.42;;
46561;SDS011;32289;42.688;23.330;2023-11-19T09:46:39;4.00;;;2.45;;
46561;SDS011;32289;42.688;23.330;2023-11-19T09:50:21;7.38;;;2.70;;
46561;SDS011;32289;42.688;23.330;2023-11-19T09:54:02;4.70;;;2.60;;
46561;SDS011;32289;42.688;23.330;2023-11-19T09:57:43;4.43;;;2.20;;
46561;SDS011;32289;42.688;23.330;2023-11-19T10:01:25;3.95;;;2.40;;
46561;SDS011;32289;42.688;23.330;2023-11-19T10:05:06;7.78;;;3.40;;
46561;SDS011;32289;42.688;23.330;2023-11-19T10:08:47;5.68;;;2.63;;
46561;SDS011;32289;42.688;23.330;2023-11-19T10:12:28;4.60;;;2.70;;
46561;SDS011;32289;42.688;23.330;2023-11-19T10:16:09;7.57;;;3.63;;
46561;SDS011;32289;42.688;23.330;2023-11-19T10:19:53;5.68;;;3.22;;
46561;SDS011;32289;42.688;23.330;2023-11-19T10:23:54;5.45;;;2.47;;
46561;SDS011;32289;42.688;23.330;2023-11-19T10:27:38;4.95;;;2.90;;
46561;SDS011;32289;42.688;23.330;2023-11-19T10:31:19;8.52;;;3.50;;
46561;SDS011;32289;42.688;23.330;2023-11-19T10:35:06;6.35;;;2.72;;
46561;SDS011;32289;42.688;23.330;2023-11-19T10:38:56;4.97;;;2.65;;
46561;SDS011;32289;42.688;23.330;2023-11-19T10:42:40;8.40;;;3.75;;
46561;SDS011;32289;42.688;23.330;2023-11-19T10:46:21;7.15;;;3.15;;
46561;SDS011;32289;42.688;23.330;2023-11-19T10:50:03;4.30;;;2.25;;
46561;SDS011;32289;42.688;23.330;2023-11-19T10:53:44;9.63;;;3.13;;
46561;SDS011;32289;42.688;23.330;2023-11-19T10:57:25;2.88;;;1.90;;
46561;SDS011;32289;42.688;23.330;2023-11-19T11:01:13;5.82;;;3.30;;
46561;SDS011;32289;42.688;23.330;2023-11-19T11:04:58;5.57;;;2.58;;
46561;SDS011;32289;42.688;23.330;2023-11-19T11:08:40;4.88;;;2.13;;
46561;SDS011;32289;42.688;23.330;2023-11-19T11:12:21;4.60;;;2.42;;
46561;SDS011;32289;42.688;23.330;2023-11-19T11:16:04;11.57;;;2.75;;
46561;SDS011;32289;42.688;23.330;2023-11-19T11:19:47;3.95;;;2.13;;
46561;SDS011;32289;42.688;23.330;2023-11-19T11:27:46;4.40;;;2.38;;
46561;SDS011;32289;42.688;23.330;2023-11-19T11:31:37;4.13;;;1.98;;
46561;SDS011;32289;42.688;23.330;2023-11-19T11:39:52;4.95;;;2.40;;
46561;SDS011;32289;42.688;23.330;2023-11-19T11:43:43;9.05;;;4.63;;
46561;SDS011;32289;42.688;23.330;2023-11-19T11:47:26;5.20;;;2.83;;
46561;SDS011;32289;42.688;23.330;2023-11-19T11:59:18;5.22;;;2.95;;
46561;SDS011;32289;42.688;23.330;2023-11-19T12:03:00;4.13;;;2.30;;
46561;SDS011;32289;42.688;23.330;2023-11-19T12:06:41;4.60;;;2.40;;
46561;SDS011;32289;42.688;23.330;2023-11-19T12:10:22;3.35;;;1.98;;
46561;SDS011;32289;42.688;23.330;2023-11-19T12:14:04;3.67;;;2.30;;
46561;SDS011;32289;42.688;23.330;2023-11-19T12:17:47;6.32;;;2.55;;
46561;SDS011;32289;42.688;23.330;2023-11-19T12:21:29;4.40;;;2.50;;
46561;SDS011;32289;42.688;23.330;2023-11-19T12:25:11;4.18;;;2.75;;
46561;SDS011;32289;42.688;23.330;2023-11-19T12:28:59;4.75;;;2.90;;
46561;SDS011;32289;42.688;23.330;2023-11-19T12:32:41;4.65;;;2.80;;
46561;SDS011;32289;42.688;23.330;2023-11-19T12:36:22;7.22;;;3.28;;
46561;SDS011;32289;42.688;23.330;2023-11-19T12:40:10;3.88;;;2.25;;
46561;SDS011;32289;42.688;23.330;2023-11-19T12:43:53;7.35;;;2.67;;
46561;SDS011;32289;42.688;23.330;2023-11-19T12:47:33;6.00;;;2.92;;
46561;SDS011;32289;42.688;23.330;2023-11-19T12:51:14;4.60;;;2.30;;
46561;SDS011;32289;42.688;23.330;2023-11-19T12:54:55;10.68;;;4.68;;
46561;SDS011;32289;42.688;23.330;2023-11-19T12:58:36;5.03;;;2.92;;
46561;SDS011;32289;42.688;23.330;2023-11-19T13:02:18;6.47;;;3.22;;
46561;SDS011;32289;42.688;23.330;2023-11-19T13:06:03;7.13;;;3.33;;
46561;SDS011;32289;42.688;23.330;2023-11-19T13:09:45;4.53;;;2.75;;
46561;SDS011;32289;42.688;23.330;2023-11-19T13:13:26;6.68;;;3.42;;
46561;SDS011;32289;42.688;23.330;2023-11-19T13:17:07;4.65;;;2.50;;
46561;SDS011;32289;42.688;23.330;2023-11-19T13:20:48;4.22;;;2.50;;
46561;SDS011;32289;42.688;23.330;2023-11-19T13:24:29;6.53;;;3.00;;
46561;SDS011;32289;42.688;23.330;2023-11-19T13:28:10;5.43;;;2.63;;
46561;SDS011;32289;42.688;23.330;2023-11-19T13:31:50;5.30;;;2.55;;
46561;SDS011;32289;42.688;23.330;2023-11-19T13:35:31;7.57;;;3.65;;
46561;SDS011;32289;42.688;23.330;2023-11-19T13:39:12;8.15;;;3.83;;
46561;SDS011;32289;42.688;23.330;2023-11-19T13:42:52;5.03;;;2.92;;
46561;SDS011;32289;42.688;23.330;2023-11-19T13:46:33;5.63;;;3.20;;
46561;SDS011;32289;42.688;23.330;2023-11-19T13:50:14;7.53;;;3.53;;
46561;SDS011;32289;42.688;23.330;2023-11-19T13:53:57;10.70;;;3.38;;
46561;SDS011;32289;42.688;23.330;2023-11-19T13:57:41;6.03;;;2.75;;
46561;SDS011;32289;42.688;23.330;2023-11-19T14:01:22;6.00;;;3.25;;
46561;SDS011;32289;42.688;23.330;2023-11-19T14:05:03;6.82;;;3.55;;
46561;SDS011;32289;42.688;23.330;2023-11-19T14:08:44;4.65;;;3.03;;
46561;SDS011;32289;42.688;23.330;2023-11-19T14:12:25;6.05;;;2.97;;
46561;SDS011;32289;42.688;23.330;2023-11-19T14:16:05;6.70;;;3.13;;
46561;SDS011;32289;42.688;23.330;2023-11-19T14:19:48;5.60;;;2.80;;
46561;SDS011;32289;42.688;23.330;2023-11-19T14:23:29;7.85;;;2.78;;
46561;SDS011;32289;42.688;23.330;2023-11-19T14:27:10;8.00;;;3.28;;
46561;SDS011;32289;42.688;23.330;2023-11-19T14:30:51;7.18;;;3.25;;
46561;SDS011;32289;42.688;23.330;2023-11-19T14:34:36;8.95;;;3.88;;
46561;SDS011;32289;42.688;23.330;2023-11-19T14:38:18;7.47;;;3.40;;
46561;SDS011;32289;42.688;23.330;2023-11-19T14:41:59;8.57;;;3.60;;
46561;SDS011;32289;42.688;23.330;2023-11-19T14:45:44;6.80;;;3.63;;
46561;SDS011;32289;42.688;23.330;2023-11-19T14:49:24;5.85;;;3.58;;
46561;SDS011;32289;42.688;23.330;2023-11-19T14:53:06;6.25;;;3.40;;
46561;SDS011;32289;42.688;23.330;2023-11-19T14:56:46;9.02;;;4.28;;
46561;SDS011;32289;42.688;23.330;2023-11-19T15:00:27;10.70;;;4.53;;
46561;SDS011;32289;42.688;23.330;2023-11-19T15:04:08;8.10;;;3.53;;
46561;SDS011;32289;42.688;23.330;2023-11-19T15:07:50;8.55;;;4.28;;
46561;SDS011;32289;42.688;23.330;2023-11-19T15:11:30;6.95;;;4.15;;
46561;SDS011;32289;42.688;23.330;2023-11-19T15:15:11;11.20;;;5.03;;
46561;SDS011;32289;42.688;23.330;2023-11-19T15:18:54;9.23;;;4.15;;
46561;SDS011;32289;42.688;23.330;2023-11-19T15:22:39;9.98;;;3.83;;
46561;SDS011;32289;42.688;23.330;2023-11-19T15:26:20;8.48;;;4.00;;
46561;SDS011;32289;42.688;23.330;2023-11-19T15:30:01;10.30;;;4.40;;
46561;SDS011;32289;42.688;23.330;2023-11-19T15:33:42;9.25;;;4.13;;
46561;SDS011;32289;42.688;23.330;2023-11-19T15:37:23;9.07;;;4.30;;
46561;SDS011;32289;42.688;23.330;2023-11-19T15:41:04;11.35;;;5.00;;
46561;SDS011;32289;42.688;23.330;2023-11-19T15:44:45;11.13;;;5.18;;
46561;SDS011;32289;42.688;23.330;2023-11-19T15:48:26;12.38;;;4.55;;
46561;SDS011;32289;42.688;23.330;2023-11-19T15:52:07;11.00;;;5.68;;
46561;SDS011;32289;42.688;23.330;2023-11-19T15:55:48;13.20;;;4.70;;
46561;SDS011;32289;42.688;23.330;2023-11-19T15:59:28;12.82;;;5.68;;
46561;SDS011;32289;42.688;23.330;2023-11-19T16:03:09;11.05;;;5.28;;
46561;SDS011;32289;42.688;23.330;2023-11-19T16:06:50;8.30;;;3.88;;
46561;SDS011;32289;42.688;23.330;2023-11-19T16:10:30;25.08;;;12.48;;
46561;SDS011;32289;42.688;23.330;2023-11-19T16:14:11;14.07;;;7.05;;
46561;SDS011;32289;42.688;23.330;2023-11-19T16:17:52;17.13;;;7.05;;
46561;SDS011;32289;42.688;23.330;2023-11-19T16:21:34;14.57;;;5.13;;
46561;SDS011;32289;42.688;23.330;2023-11-19T16:25:15;11.27;;;4.53;;
46561;SDS011;32289;42.688;23.330;2023-11-19T16:28:56;9.55;;;5.07;;
46561;SDS011;32289;42.688;23.330;2023-11-19T16:32:47;8.55;;;3.83;;
46561;SDS011;32289;42.688;23.330;2023-11-19T16:36:35;18.38;;;3.55;;
46561;SDS011;32289;42.688;23.330;2023-11-19T16:40:16;6.72;;;3.88;;
46561;SDS011;32289;42.688;23.330;2023-11-19T16:43:57;7.80;;;3.78;;
46561;SDS011;32289;42.688;23.330;2023-11-19T16:47:42;8.05;;;3.60;;
46561;SDS011;32289;42.688;23.330;2023-11-19T16:51:25;7.97;;;4.20;;
46561;SDS011;32289;42.688;23.330;2023-11-19T16:55:05;13.73;;;4.30;;
46561;SDS011;32289;42.688;23.330;2023-11-19T16:58:51;11.95;;;5.18;;
46561;SDS011;32289;42.688;23.330;2023-11-19T17:02:32;12.02;;;4.63;;
46561;SDS011;32289;42.688;23.330;2023-11-19T17:06:15;16.95;;;5.25;;
46561;SDS011;32289;42.688;23.330;2023-11-19T17:09:55;11.38;;;4.93;;
46561;SDS011;32289;42.688;23.330;2023-11-19T17:13:36;12.07;;;4.93;;
46561;SDS011;32289;42.688;23.330;2023-11-19T17:17:17;11.70;;;5.72;;
46561;SDS011;32289;42.688;23.330;2023-11-19T17:20:58;10.43;;;5.20;;
46561;SDS011;32289;42.688;23.330;2023-11-19T17:24:40;14.77;;;5.45;;
46561;SDS011;32289;42.688;23.330;2023-11-19T17:28:21;13.65;;;5.72;;
46561;SDS011;32289;42.688;23.330;2023-11-19T17:32:03;12.52;;;5.28;;
46561;SDS011;32289;42.688;23.330;2023-11-19T17:35:44;9.90;;;4.13;;
46561;SDS011;32289;42.688;23.330;2023-11-19T17:39:25;11.13;;;5.07;;
46561;SDS011;32289;42.688;23.330;2023-11-19T17:43:06;9.35;;;3.90;;
46561;SDS011;32289;42.688;23.330;2023-11-19T17:46:47;7.13;;;3.88;;
46561;SDS011;32289;42.688;23.330;2023-11-19T17:50:28;6.95;;;4.00;;
46561;SDS011;32289;42.688;23.330;2023-11-19T17:54:09;11.02;;;4.53;;
46561;SDS011;32289;42.688;23.330;2023-11-19T17:57:50;11.05;;;3.90;;
46561;SDS011;32289;42.688;23.330;2023-11-19T18:01:33;6.10;;;3.05;;
46561;SDS011;32289;42.688;23.330;2023-11-19T18:05:16;7.07;;;3.60;;
46561;SDS011;32289;42.688;23.330;2023-11-19T18:08:57;6.10;;;2.75;;
46561;SDS011;32289;42.688;23.330;2023-11-19T18:12:38;9.60;;;3.65;;
46561;SDS011;32289;42.688;23.330;2023-11-19T18:16:19;7.85;;;3.78;;
46561;SDS011;32289;42.688;23.330;2023-11-19T18:20:00;6.80;;;3.40;;
46561;SDS011;32289;42.688;23.330;2023-11-19T18:23:41;10.10;;;3.50;;
46561;SDS011;32289;42.688;23.330;2023-11-19T18:27:21;6.30;;;3.58;;
46561;SDS011;32289;42.688;23.330;2023-11-19T18:31:02;8.77;;;3.97;;
46561;SDS011;32289;42.688;23.330;2023-11-19T18:34:43;10.90;;;3.83;;
46561;SDS011;32289;42.688;23.330;2023-11-19T18:38:24;6.13;;;3.33;;
46561;SDS011;32289;42.688;23.330;2023-11-19T18:42:05;8.02;;;3.88;;
46561;SDS011;32289;42.688;23.330;2023-11-19T18:45:46;11.35;;;3.58;;
46561;SDS011;32289;42.688;23.330;2023-11-19T18:49:26;9.55;;;3.60;;
46561;SDS011;32289;42.688;23.330;2023-11-19T18:53:07;7.20;;;3.40;;
46561;SDS011;32289;42.688;23.330;2023-11-19T18:56:48;11.00;;;4.75;;
46561;SDS011;32289;42.688;23.330;2023-11-19T19:00:29;10.80;;;3.40;;
46561;SDS011;32289;42.688;23.330;2023-11-19T19:04:10;6.55;;;3.22;;
46561;SDS011;32289;42.688;23.330;2023-11-19T19:07:50;7.15;;;4.00;;
46561;SDS011;32289;42.688;23.330;2023-11-19T19:11:36;7.72;;;3.63;;
46561;SDS011;32289;42.688;23.330;2023-11-19T19:15:17;6.15;;;3.63;;
46561;SDS011;32289;42.688;23.330;2023-11-19T19:18:58;9.70;;;3.70;;
46561;SDS011;32289;42.688;23.330;2023-11-19T19:22:39;6.97;;;3.58;;
46561;SDS011;32289;42.688;23.330;2023-11-19T19:26:21;8.18;;;3.35;;
46561;SDS011;32289;42.688;23.330;2023-11-19T19:30:02;14.05;;;3.67;;
46561;SDS011;32289;42.688;23.330;2023-11-19T19:33:43;7.88;;;3.70;;
46561;SDS011;32289;42.688;23.330;2023-11-19T19:37:25;9.63;;;3.95;;
46561;SDS011;32289;42.688;23.330;2023-11-19T19:41:06;8.25;;;3.38;;
46561;SDS011;32289;42.688;23.330;2023-11-19T19:44:46;7.10;;;3.40;;
46561;SDS011;32289;42.688;23.330;2023-11-19T19:48:27;8.93;;;3.78;;
46561;SDS011;32289;42.688;23.330;2023-11-19T19:52:08;7.75;;;4.15;;
46561;SDS011;32289;42.688;23.330;2023-11-19T19:55:52;10.30;;;3.90;;
46561;SDS011;32289;42.688;23.330;2023-11-19T19:59:33;8.75;;;3.50;;
46561;SDS011;32289;42.688;23.330;2023-11-19T20:03:14;5.28;;;3.17;;
46561;SDS011;32289;42.688;23.330;2023-11-19T20:06:56;7.43;;;3.33;;
46561;SDS011;32289;42.688;23.330;2023-11-19T20:10:37;9.32;;;3.70;;
46561;SDS011;32289;42.688;23.330;2023-11-19T20:14:18;7.15;;;3.30;;
46561;SDS011;32289;42.688;23.330;2023-11-19T20:18:06;9.00;;;3.47;;
46561;SDS011;32289;42.688;23.330;2023-11-19T20:21:47;7.22;;;3.35;;
46561;SDS011;32289;42.688;23.330;2023-11-19T20:25:28;6.88;;;3.25;;
46561;SDS011;32289;42.688;23.330;2023-11-19T20:29:09;11.32;;;3.60;;
46561;SDS011;32289;42.688;23.330;2023-11-19T20:32:49;4.68;;;2.70;;
46561;SDS011;32289;42.688;23.330;2023-11-19T20:36:30;5.03;;;2.65;;
46561;SDS011;32289;42.688;23.330;2023-11-19T20:40:11;4.32;;;2.50;;
46561;SDS011;32289;42.688;23.330;2023-11-19T20:43:52;9.48;;;2.88;;
46561;SDS011;32289;42.688;23.330;2023-11-19T20:47:32;5.00;;;2.63;;
46561;SDS011;32289;42.688;23.330;2023-11-19T20:51:17;5.22;;;2.63;;
46561;SDS011;32289;42.688;23.330;2023-11-19T20:54:58;7.43;;;2.88;;
46561;SDS011;32289;42.688;23.330;2023-11-19T20:58:39;5.63;;;2.90;;
46561;SDS011;32289;42.688;23.330;2023-11-19T21:02:20;8.18;;;3.65;;
46561;SDS011;32289;42.688;23.330;2023-11-19T21:06:01;7.07;;;3.20;;
46561;SDS011;32289;42.688;23.330;2023-11-19T21:09:41;7.20;;;2.80;;
46561;SDS011;32289;42.688;23.330;2023-11-19T21:13:22;6.53;;;3.30;;
46561;SDS011;32289;42.688;23.330;2023-11-19T21:17:04;5.65;;;3.10;;
46561;SDS011;32289;42.688;23.330;2023-11-19T21:20:47;6.68;;;2.78;;
46561;SDS011;32289;42.688;23.330;2023-11-19T21:24:28;6.70;;;3.08;;
46561;SDS011;32289;42.688;23.330;2023-11-19T21:28:09;6.82;;;3.20;;
46561;SDS011;32289;42.688;23.330;2023-11-19T21:31:50;8.15;;;3.15;;
46561;SDS011;32289;42.688;23.330;2023-11-19T21:35:30;5.90;;;2.70;;
46561;SDS011;32289;42.688;23.330;2023-11-19T21:39:12;7.85;;;3.13;;
46561;SDS011;32289;42.688;23.330;2023-11-19T21:42:53;8.25;;;2.95;;
46561;SDS011;32289;42.688;23.330;2023-11-19T21:46:36;9.55;;;3.03;;
46561;SDS011;32289;42.688;23.330;2023-11-19T21:50:16;6.22;;;3.30;;
46561;SDS011;32289;42.688;23.330;2023-11-19T21:53:57;6.18;;;3.40;;
46561;SDS011;32289;42.688;23.330;2023-11-19T21:57:38;6.03;;;2.92;;
46561;SDS011;32289;42.688;23.330;2023-11-19T22:01:21;6.35;;;2.60;;
46561;SDS011;32289;42.688;23.330;2023-11-19T22:05:02;5.55;;;2.95;;
46561;SDS011;32289;42.688;23.330;2023-11-19T22:08:42;8.10;;;2.45;;
46561;SDS011;32289;42.688;23.330;2023-11-19T22:12:23;4.70;;;2.53;;